This is the latest recevied weather packets stored in our database for station/object KO4IDC-13. If no packets are shown the sender has not sent any weather packets the latest 10 day(s).
| Time | Temp. | Humidity | Pressure | Rain* | Wind** | Luminosity | Snow |
|---|---|---|---|---|---|---|---|
| 1778089868 | 16.11° C | 54% | 1017 hPa | 0 mm | - | 554 W/m² | - |
| 1778089568 | 16.67° C | 54% | 1016.9 hPa | 0 mm | - | 457 W/m² | - |
| 1778089263 | 15° C | 59% | 1016.7 hPa | 0 mm | - | 712 W/m² | - |
| 1778088961 | 15.56° C | 58% | 1016.8 hPa | 0 mm | - | 683 W/m² | - |
| 1778088658 | 15.56° C | 59% | 1016.6 hPa | 0 mm | - | 707 W/m² | - |
| 1778088355 | 15.56° C | 59% | 1016.8 hPa | 0 mm | - | 529 W/m² | - |
| 1778088051 | 15.56° C | 60% | 1017 hPa | 0 mm | - | 668 W/m² | - |
| 1778087749 | 15° C | 59% | 1017.1 hPa | 0 mm | - | 829 W/m² | - |
| 1778087447 | 14.44° C | 61% | 1017.3 hPa | 0 mm | - | 524 W/m² | - |
| 1778087143 | 15° C | 62% | 1017.4 hPa | 0 mm | - | 438 W/m² | - |
| 1778086835 | 15° C | 59% | 1017.4 hPa | 0 mm | - | 424 W/m² | - |
| 1778086534 | 15° C | 61% | 1017.4 hPa | 0 mm | - | 451 W/m² | - |
| 1778086229 | 15° C | 63% | 1017.6 hPa | 0 mm | - | 449 W/m² | - |
| 1778085927 | 14.44° C | 63% | 1017.5 hPa | 0 mm | - | 432 W/m² | - |
| 1778085624 | 13.89° C | 66% | 1017.2 hPa | 0 mm | - | 384 W/m² | - |
| 1778085320 | 14.44° C | 67% | 1017.4 hPa | 0 mm | - | 375 W/m² | - |
| 1778085016 | 14.44° C | 66% | 1017.6 hPa | 0 mm | - | 370 W/m² | - |
| 1778084712 | 14.44° C | 67% | 1017.5 hPa | 0 mm | - | 433 W/m² | - |
| 1778084409 | 15° C | 67% | 1017.5 hPa | 0 mm | - | 395 W/m² | - |
| 1778084107 | 15° C | 66% | 1017.1 hPa | 0 mm | - | 434 W/m² | - |
| 1778083804 | 15° C | 68% | 1017.3 hPa | 0 mm | - | 480 W/m² | - |
| 1778083501 | 14.44° C | 68% | 1017.3 hPa | 0 mm | - | 458 W/m² | - |
| 1778083198 | 15° C | 66% | 1017.4 hPa | 0 mm | - | 437 W/m² | - |
| 1778082896 | 14.44° C | 69% | 1017.1 hPa | 0 mm | - | 528 W/m² | - |
| 1778081783 | 13.33° C | 75% | 1017.4 hPa | 0 mm | - | 382 W/m² | - |
* Rain latest hour (hover to see other rain measurements)
** Current wind speed in m/s (hover to see current wind gust speed)